createdAt,value
2022-08-31T00:00:09.311Z,10.55
2022-08-31T00:02:54.644Z,6.82
2022-08-31T00:05:21.817Z,12.95
2022-08-31T00:07:48.433Z,10.73
2022-08-31T00:10:15.747Z,11.43
2022-08-31T00:12:43.795Z,11.32
2022-08-31T00:15:13.450Z,9.57
2022-08-31T00:17:40.844Z,8.25
2022-08-31T00:20:09.797Z,7.20
2022-08-31T00:22:57.053Z,7.55
2022-08-31T00:25:24.113Z,13.68
2022-08-31T00:27:50.914Z,10.95
2022-08-31T00:30:17.490Z,12.80
2022-08-31T00:32:44.045Z,10.73
2022-08-31T00:35:10.615Z,9.93
2022-08-31T00:37:37.358Z,13.27
2022-08-31T00:40:04.856Z,7.20
2022-08-31T00:42:31.503Z,12.10
2022-08-31T00:44:58.148Z,12.63
2022-08-31T00:47:24.738Z,11.25
2022-08-31T00:49:52.782Z,9.43
2022-08-31T00:52:33.316Z,9.77
2022-08-31T00:55:17.905Z,10.57
2022-08-31T00:57:48.196Z,9.88
2022-08-31T01:00:18.910Z,11.45
2022-08-31T01:02:45.795Z,13.80
2022-08-31T01:05:13.598Z,10.88
2022-08-31T01:07:41.869Z,11.93
2022-08-31T01:10:09.929Z,15.63
2022-08-31T01:12:37.465Z,11.30
2022-08-31T01:15:25.791Z,10.90
2022-08-31T01:17:55.328Z,12.85
2022-08-31T01:20:49.122Z,12.25
2022-08-31T01:23:21.444Z,9.63
2022-08-31T01:25:49.166Z,12.25
2022-08-31T01:28:16.023Z,7.30
2022-08-31T01:30:44.313Z,12.50
2022-08-31T01:33:13.273Z,9.00
2022-08-31T01:35:44.736Z,9.18
2022-08-31T01:38:13.292Z,8.32
2022-08-31T01:40:49.362Z,10.80
2022-08-31T01:43:16.551Z,9.23
2022-08-31T01:45:43.349Z,7.28
2022-08-31T01:48:10.431Z,9.70
2022-08-31T01:50:37.098Z,13.68
2022-08-31T01:53:04.005Z,9.38
2022-08-31T01:55:30.876Z,8.27
2022-08-31T01:57:58.898Z,11.35
2022-08-31T02:00:25.907Z,7.13
2022-08-31T02:02:52.502Z,10.63
2022-08-31T02:05:19.356Z,10.70
2022-08-31T02:07:46.074Z,9.20
2022-08-31T02:10:12.699Z,9.57
2022-08-31T02:12:39.350Z,9.77
2022-08-31T02:15:06.726Z,11.60
2022-08-31T02:17:33.281Z,10.57
2022-08-31T02:19:59.863Z,13.55
2022-08-31T02:22:26.467Z,10.90
2022-08-31T02:24:53.020Z,7.30
2022-08-31T02:27:19.647Z,11.27
2022-08-31T02:29:46.268Z,10.82
2022-08-31T02:32:20.330Z,10.00
2022-08-31T02:34:48.541Z,9.80
2022-08-31T02:37:15.535Z,10.43
2022-08-31T02:39:44.287Z,17.27
2022-08-31T02:42:11.064Z,7.05
2022-08-31T02:44:37.606Z,9.73
2022-08-31T02:47:04.357Z,10.20
2022-08-31T02:49:33.045Z,13.88
2022-08-31T02:51:59.677Z,11.00
2022-08-31T02:54:26.213Z,12.75
2022-08-31T02:56:52.969Z,8.88
2022-08-31T02:59:20.763Z,9.93
2022-08-31T03:01:48.306Z,13.60
2022-08-31T03:04:15.017Z,8.85
2022-08-31T03:06:41.870Z,8.13
2022-08-31T03:09:08.407Z,8.73
2022-08-31T03:11:34.984Z,9.32
2022-08-31T03:14:01.564Z,14.02
2022-08-31T03:16:28.137Z,11.65
2022-08-31T03:18:54.798Z,11.52
2022-08-31T03:21:21.402Z,12.07
2022-08-31T03:23:48.003Z,13.85
2022-08-31T03:26:14.680Z,10.43
2022-08-31T03:28:41.296Z,11.30
2022-08-31T03:31:09.899Z,11.40
2022-08-31T03:33:36.692Z,9.10
2022-08-31T03:36:05.779Z,7.15
2022-08-31T03:38:32.507Z,13.27
2022-08-31T03:41:01.313Z,8.55
2022-08-31T03:43:27.958Z,7.47
2022-08-31T03:45:54.999Z,11.88
2022-08-31T03:48:21.635Z,11.13
2022-08-31T03:50:48.202Z,17.33
2022-08-31T03:53:15.101Z,10.38
2022-08-31T03:55:43.941Z,13.40
2022-08-31T03:58:12.027Z,9.80
2022-08-31T04:00:39.597Z,9.32
2022-08-31T04:03:06.340Z,11.75
2022-08-31T04:05:36.650Z,9.95
2022-08-31T04:08:03.458Z,9.85
2022-08-31T04:10:30.055Z,11.00
2022-08-31T04:12:56.614Z,11.50
2022-08-31T04:15:23.321Z,13.10
2022-08-31T04:17:49.933Z,9.88
2022-08-31T04:20:29.489Z,9.07
2022-08-31T04:22:56.740Z,9.32
2022-08-31T04:25:23.295Z,13.95
2022-08-31T04:27:50.383Z,11.35
2022-08-31T04:30:18.143Z,7.68
2022-08-31T04:32:44.720Z,11.35
2022-08-31T04:35:11.433Z,11.63
2022-08-31T04:37:40.488Z,13.98
2022-08-31T04:45:16.973Z,13.68
2022-08-31T04:47:43.889Z,17.05
2022-08-31T04:50:12.617Z,10.57
2022-08-31T04:52:39.296Z,10.25
2022-08-31T04:55:07.297Z,12.07
2022-08-31T04:57:35.711Z,8.73
2022-08-31T05:00:04.579Z,12.95
2022-08-31T05:02:33.377Z,8.68
2022-08-31T05:05:00.566Z,8.75
2022-08-31T05:07:27.177Z,10.70
2022-08-31T05:09:53.914Z,13.13
2022-08-31T05:12:20.553Z,10.57
2022-08-31T05:14:47.922Z,9.13
2022-08-31T05:17:16.656Z,11.52
2022-08-31T05:19:43.942Z,15.30
2022-08-31T05:22:11.194Z,20.00
2022-08-31T05:24:38.936Z,14.50
2022-08-31T05:27:06.499Z,12.05
2022-08-31T05:29:33.239Z,13.50
2022-08-31T05:31:59.950Z,12.82
2022-08-31T05:34:26.952Z,9.82
2022-08-31T05:36:55.782Z,9.55
2022-08-31T05:39:23.953Z,11.93
2022-08-31T05:41:50.528Z,10.48
2022-08-31T05:44:18.093Z,15.27
2022-08-31T05:46:45.027Z,15.45
2022-08-31T05:49:21.279Z,13.40
2022-08-31T05:51:47.813Z,12.15
2022-08-31T05:54:15.986Z,18.85
2022-08-31T05:56:42.905Z,20.80
2022-08-31T05:59:09.864Z,13.45
2022-08-31T06:01:39.643Z,19.67
2022-08-31T06:04:08.343Z,13.45
2022-08-31T06:06:35.561Z,11.45
2022-08-31T06:09:02.130Z,15.63
2022-08-31T06:11:31.000Z,18.05
2022-08-31T06:14:00.430Z,34.90
2022-08-31T06:16:28.052Z,17.13
2022-08-31T06:18:55.806Z,20.63
2022-08-31T06:21:36.435Z,22.15
2022-08-31T06:24:05.475Z,24.30
2022-08-31T06:26:34.835Z,26.30
2022-08-31T06:29:04.571Z,21.98
2022-08-31T06:31:36.334Z,13.60
2022-08-31T06:36:31.493Z,24.23
2022-08-31T06:38:59.826Z,23.50
2022-08-31T06:41:35.808Z,32.20
2022-08-31T06:44:05.906Z,21.98
2022-08-31T06:46:34.477Z,22.70
2022-08-31T06:49:02.016Z,16.92
2022-08-31T06:51:29.078Z,16.63
2022-08-31T06:53:59.357Z,18.02
2022-08-31T06:56:35.654Z,24.88
2022-08-31T06:59:02.969Z,25.23
2022-08-31T07:01:35.311Z,21.80
2022-08-31T07:04:07.568Z,17.80
2022-08-31T07:06:41.313Z,19.80
2022-08-31T07:09:11.047Z,14.35
2022-08-31T07:11:44.725Z,11.60
2022-08-31T07:14:14.535Z,10.68
2022-08-31T07:16:42.182Z,15.30
2022-08-31T07:19:09.325Z,12.85
2022-08-31T07:21:41.835Z,15.48
2022-08-31T07:24:10.277Z,10.23
2022-08-31T07:26:47.639Z,10.98
2022-08-31T07:29:17.432Z,11.80
2022-08-31T07:31:46.569Z,8.43
2022-08-31T07:34:17.271Z,6.70
2022-08-31T07:37:02.405Z,8.05
2022-08-31T07:39:48.983Z,14.60
2022-08-31T07:42:22.555Z,8.73
2022-08-31T07:44:53.452Z,8.82
2022-08-31T07:47:22.687Z,9.40
2022-08-31T07:49:52.769Z,9.52
2022-08-31T07:52:23.822Z,7.88
2022-08-31T07:54:52.574Z,7.13
2022-08-31T07:57:20.193Z,11.82
2022-08-31T07:59:50.061Z,10.02
2022-08-31T08:02:17.664Z,8.85
2022-08-31T08:04:45.125Z,9.95
2022-08-31T08:07:12.811Z,9.82
2022-08-31T08:09:39.436Z,9.30
2022-08-31T08:12:06.492Z,9.75
2022-08-31T08:14:36.150Z,14.38
2022-08-31T08:17:05.544Z,12.82
2022-08-31T08:19:33.796Z,18.60
2022-08-31T08:22:04.330Z,16.48
2022-08-31T08:24:32.675Z,16.02
2022-08-31T08:27:00.192Z,14.57
2022-08-31T08:29:29.920Z,25.50
2022-08-31T08:32:00.562Z,13.27
2022-08-31T08:34:31.693Z,13.45
2022-08-31T08:36:59.696Z,17.73
2022-08-31T08:39:27.181Z,19.88
2022-08-31T08:41:57.814Z,19.80
2022-08-31T08:44:28.601Z,23.55
2022-08-31T08:46:58.627Z,22.67
2022-08-31T08:49:28.935Z,28.10
2022-08-31T08:52:07.333Z,25.58
2022-08-31T08:54:39.494Z,23.15
2022-08-31T08:57:15.658Z,17.98
2022-08-31T08:59:46.999Z,19.15
2022-08-31T09:02:24.112Z,19.75
2022-08-31T09:05:18.720Z,14.13
2022-08-31T09:08:00.643Z,16.63
2022-08-31T09:10:42.523Z,17.38
2022-08-31T09:13:21.173Z,15.75
2022-08-31T09:16:12.064Z,16.17
2022-08-31T09:18:50.114Z,11.77
2022-08-31T09:21:30.979Z,12.40
2022-08-31T09:24:02.633Z,17.25
2022-08-31T09:26:50.897Z,16.05
2022-08-31T09:29:24.657Z,16.92
2022-08-31T09:32:05.952Z,15.48
2022-08-31T09:34:37.397Z,9.77
2022-08-31T09:37:24.261Z,13.32
2022-08-31T09:39:53.044Z,13.45
2022-08-31T09:42:29.192Z,9.50
2022-08-31T09:45:00.261Z,11.65
2022-08-31T09:47:43.216Z,12.48
2022-08-31T09:50:12.010Z,11.07
2022-08-31T09:52:58.811Z,11.20
2022-08-31T09:55:28.172Z,9.18
2022-08-31T09:57:57.697Z,11.45
2022-08-31T10:00:45.100Z,9.75
2022-08-31T10:03:19.180Z,15.38
2022-08-31T10:05:47.343Z,10.05
2022-08-31T10:08:28.228Z,11.00
2022-08-31T10:11:01.964Z,7.57
2022-08-31T10:13:39.198Z,12.52
2022-08-31T10:16:26.276Z,11.02
2022-08-31T10:18:55.627Z,7.97
2022-08-31T10:21:35.491Z,7.68
2022-08-31T10:24:33.716Z,9.68
2022-08-31T10:27:08.280Z,12.55
2022-08-31T10:29:44.144Z,9.32
2022-08-31T10:32:23.849Z,8.13
2022-08-31T10:35:05.022Z,10.88
2022-08-31T10:37:38.679Z,7.47
2022-08-31T10:40:14.062Z,8.57
2022-08-31T10:43:01.712Z,7.65
2022-08-31T10:45:31.570Z,9.68
2022-08-31T10:47:59.887Z,9.93
2022-08-31T10:50:39.243Z,9.68
2022-08-31T10:53:32.619Z,12.93
2022-08-31T10:56:12.807Z,8.80
2022-08-31T10:59:00.634Z,8.48
2022-08-31T11:01:35.408Z,8.63
2022-08-31T11:04:02.189Z,8.77
2022-08-31T11:06:44.156Z,7.80
2022-08-31T11:09:22.400Z,33.63
2022-08-31T11:12:07.348Z,25.20
2022-08-31T11:15:01.997Z,26.17
2022-08-31T11:17:52.988Z,16.60
2022-08-31T11:20:41.719Z,14.23
2022-08-31T11:23:35.874Z,8.43
2022-08-31T11:26:16.842Z,13.75
2022-08-31T11:28:49.570Z,10.75
2022-08-31T11:31:24.075Z,11.35
2022-08-31T11:34:15.515Z,13.45
2022-08-31T11:37:01.499Z,12.15
2022-08-31T11:39:31.093Z,11.02
2022-08-31T11:41:59.296Z,11.13
2022-08-31T11:44:36.937Z,14.88
2022-08-31T11:47:05.786Z,9.23
2022-08-31T11:49:43.828Z,11.20
2022-08-31T11:52:29.804Z,16.52
2022-08-31T11:54:59.024Z,13.85
2022-08-31T11:57:36.890Z,14.00
2022-08-31T12:00:19.232Z,6.82
2022-08-31T12:03:01.563Z,14.82
2022-08-31T12:05:50.982Z,11.07
2022-08-31T12:08:18.163Z,12.57
2022-08-31T12:11:05.451Z,14.82
2022-08-31T12:13:49.941Z,11.00
2022-08-31T12:16:21.828Z,13.25
2022-08-31T12:22:18.466Z,13.05
2022-08-31T12:25:11.583Z,13.32
2022-08-31T12:27:47.379Z,14.00
2022-08-31T12:30:22.550Z,11.55
2022-08-31T12:32:59.075Z,8.45
2022-08-31T12:35:28.619Z,15.43
2022-08-31T12:38:02.818Z,8.27
2022-08-31T12:40:35.783Z,12.68
2022-08-31T12:43:20.107Z,13.93
2022-08-31T12:46:02.355Z,10.20
2022-08-31T12:48:51.687Z,12.70
2022-08-31T12:51:28.083Z,7.20
2022-08-31T12:54:16.310Z,6.30
2022-08-31T12:57:07.613Z,7.18
2022-08-31T13:02:27.095Z,7.50
2022-08-31T13:04:54.267Z,6.03
2022-08-31T13:07:23.971Z,5.03
2022-08-31T13:10:15.625Z,4.50
2022-08-31T13:12:54.004Z,5.88
2022-08-31T13:15:42.597Z,5.50
2022-08-31T13:18:16.105Z,4.53
2022-08-31T13:20:44.229Z,6.72
2022-08-31T13:23:15.205Z,9.02
2022-08-31T13:28:13.888Z,6.05
2022-08-31T13:33:27.108Z,6.05
2022-08-31T13:36:30.290Z,5.75
2022-08-31T13:38:57.130Z,8.00
2022-08-31T13:41:30.071Z,7.22
2022-08-31T13:44:01.367Z,4.10
2022-08-31T13:46:42.433Z,4.07
2022-08-31T13:49:26.066Z,4.95
2022-08-31T13:51:52.914Z,6.25
2022-08-31T13:57:11.071Z,4.45
2022-08-31T13:59:39.698Z,4.00
2022-08-31T14:02:36.737Z,5.20
2022-08-31T14:05:07.911Z,4.00
2022-08-31T14:07:43.479Z,7.00
2022-08-31T14:10:17.478Z,3.28
2022-08-31T14:12:54.690Z,4.90
2022-08-31T14:15:37.832Z,7.10
2022-08-31T14:18:24.394Z,4.35
2022-08-31T14:21:20.513Z,3.20
2022-08-31T14:24:02.033Z,4.25
2022-08-31T14:26:34.778Z,4.40
2022-08-31T14:29:10.915Z,3.75
2022-08-31T14:31:52.369Z,5.10
2022-08-31T14:34:24.395Z,3.47
2022-08-31T14:36:53.765Z,5.32
2022-08-31T14:39:22.250Z,5.88
2022-08-31T14:41:49.276Z,4.22
2022-08-31T14:44:20.094Z,2.72
2022-08-31T14:46:46.752Z,2.47
2022-08-31T14:49:13.555Z,2.95
2022-08-31T14:51:41.294Z,2.67
2022-08-31T14:54:09.043Z,3.78
2022-08-31T14:56:46.815Z,3.42
2022-08-31T14:59:16.280Z,4.05
2022-08-31T15:01:46.848Z,3.33
2022-08-31T15:04:16.131Z,2.47
2022-08-31T15:06:47.571Z,2.92
2022-08-31T15:11:43.683Z,3.67
2022-08-31T15:14:12.530Z,2.42
2022-08-31T15:16:44.248Z,2.35
2022-08-31T15:19:14.877Z,3.83
2022-08-31T15:21:51.795Z,4.93
2022-08-31T15:24:21.885Z,3.60
2022-08-31T15:26:48.989Z,3.17
2022-08-31T15:29:16.555Z,2.33
2022-08-31T15:31:49.754Z,5.13
2022-08-31T15:34:31.291Z,4.50
2022-08-31T15:37:03.926Z,4.22
2022-08-31T15:39:36.624Z,7.65
2022-08-31T15:42:09.353Z,6.45
2022-08-31T15:44:40.989Z,7.30
2022-08-31T15:49:55.698Z,5.38
2022-08-31T15:52:27.706Z,3.95
2022-08-31T15:54:55.058Z,5.18
2022-08-31T15:57:23.467Z,4.88
2022-08-31T15:59:50.627Z,4.53
2022-08-31T16:02:20.838Z,6.13
2022-08-31T16:04:50.561Z,4.43
2022-08-31T16:07:17.836Z,6.60
2022-08-31T16:09:47.455Z,3.65
2022-08-31T16:12:16.005Z,4.88
2022-08-31T16:14:46.230Z,2.92
2022-08-31T16:17:17.129Z,9.35
2022-08-31T16:19:43.733Z,4.22
2022-08-31T16:22:10.522Z,4.72
2022-08-31T16:24:37.753Z,4.03
2022-08-31T16:27:07.953Z,2.85
2022-08-31T16:29:36.299Z,6.72
2022-08-31T16:32:04.277Z,4.80
2022-08-31T16:34:31.557Z,5.57
2022-08-31T16:36:59.851Z,7.47
2022-08-31T16:39:28.316Z,5.07
2022-08-31T16:41:55.341Z,4.75
2022-08-31T16:44:21.891Z,3.95
2022-08-31T16:46:49.024Z,5.40
2022-08-31T16:49:34.095Z,7.75
2022-08-31T16:52:05.739Z,6.03
2022-08-31T16:57:00.365Z,2.75
2022-08-31T16:59:29.132Z,3.42
2022-08-31T17:01:55.950Z,3.58
2022-08-31T17:04:50.604Z,7.97
2022-08-31T17:07:14.798Z,2.85
2022-08-31T17:09:42.538Z,5.65
2022-08-31T17:12:13.430Z,2.65
2022-08-31T17:14:46.999Z,4.60
2022-08-31T17:17:16.908Z,3.70
2022-08-31T17:19:44.913Z,4.10
2022-08-31T17:22:21.502Z,4.00
2022-08-31T17:24:50.586Z,6.05
2022-08-31T17:27:21.061Z,3.25
2022-08-31T17:29:51.797Z,3.88
2022-08-31T17:32:23.978Z,3.88
2022-08-31T17:34:51.967Z,5.07
2022-08-31T17:37:26.871Z,5.97
2022-08-31T17:39:53.974Z,6.15
2022-08-31T17:42:22.812Z,4.90
2022-08-31T17:44:53.071Z,9.75
2022-08-31T17:47:21.886Z,4.78
2022-08-31T17:49:50.806Z,4.63
2022-08-31T17:52:20.712Z,5.22
2022-08-31T17:54:48.491Z,5.50
2022-08-31T17:57:16.802Z,6.93
2022-08-31T17:59:48.910Z,5.68
2022-08-31T18:02:35.013Z,6.70
2022-08-31T18:05:03.333Z,5.72
2022-08-31T18:07:36.769Z,5.05
2022-08-31T18:10:04.770Z,4.97
2022-08-31T18:12:31.467Z,5.13
2022-08-31T18:14:58.260Z,4.97
2022-08-31T18:17:26.540Z,9.07
2022-08-31T18:19:54.678Z,8.13
2022-08-31T18:22:21.651Z,6.25
2022-08-31T18:24:48.339Z,4.13
2022-08-31T18:27:15.375Z,6.18
2022-08-31T18:29:44.236Z,5.28
2022-08-31T18:32:11.564Z,5.68
2022-08-31T18:34:41.014Z,8.20
2022-08-31T18:37:09.846Z,5.93
2022-08-31T18:39:59.618Z,8.50
2022-08-31T18:42:46.065Z,4.90
2022-08-31T18:45:15.437Z,8.75
2022-08-31T18:47:42.115Z,5.32
2022-08-31T18:50:09.104Z,4.57
2022-08-31T18:52:39.231Z,5.03
2022-08-31T18:55:06.547Z,6.00
2022-08-31T18:57:33.329Z,5.18
2022-08-31T19:00:03.259Z,8.88
2022-08-31T19:02:30.121Z,5.45
2022-08-31T19:04:57.420Z,7.03
2022-08-31T19:07:24.229Z,6.65
2022-08-31T19:09:52.140Z,7.53
2022-08-31T19:12:19.555Z,4.80
2022-08-31T19:14:51.907Z,4.43
2022-08-31T19:17:19.174Z,7.22
2022-08-31T19:19:48.677Z,6.07
2022-08-31T19:22:16.522Z,4.32
2022-08-31T19:24:43.071Z,4.05
2022-08-31T19:27:10.332Z,5.20
2022-08-31T19:29:37.816Z,5.22
2022-08-31T19:32:05.899Z,4.97
2022-08-31T19:34:36.317Z,5.35
2022-08-31T19:37:05.980Z,9.48
2022-08-31T19:39:37.280Z,4.60
2022-08-31T19:42:07.990Z,7.25
2022-08-31T19:47:25.521Z,7.97
2022-08-31T19:49:52.901Z,4.50
2022-08-31T19:52:20.167Z,6.63
2022-08-31T19:54:48.491Z,7.45
2022-08-31T19:57:16.372Z,9.55
2022-08-31T19:59:42.974Z,6.50
2022-08-31T20:02:09.730Z,8.02
2022-08-31T20:04:36.744Z,7.10
2022-08-31T20:07:06.396Z,6.20
2022-08-31T20:09:34.412Z,7.00
2022-08-31T20:12:02.074Z,9.48
2022-08-31T20:14:28.874Z,10.18
2022-08-31T20:16:55.452Z,8.80
2022-08-31T20:19:25.136Z,5.80
2022-08-31T20:21:54.272Z,7.85
2022-08-31T20:24:25.788Z,5.80
2022-08-31T20:26:55.566Z,6.38
2022-08-31T20:29:23.614Z,8.18
2022-08-31T20:31:51.897Z,7.93
2022-08-31T20:34:22.058Z,10.35
2022-08-31T20:36:52.380Z,8.25
2022-08-31T20:39:20.001Z,7.45
2022-08-31T20:41:49.938Z,8.65
2022-08-31T20:44:36.762Z,9.60
2022-08-31T20:47:27.620Z,9.40
2022-08-31T20:49:57.015Z,5.57
2022-08-31T20:52:26.147Z,6.85
2022-08-31T20:55:01.437Z,5.45
2022-08-31T20:57:30.307Z,5.13
2022-08-31T20:59:56.997Z,9.57
2022-08-31T21:02:23.666Z,6.30
2022-08-31T21:04:50.389Z,5.38
2022-08-31T21:07:19.060Z,5.22
2022-08-31T21:09:46.623Z,4.22
2022-08-31T21:12:18.062Z,6.10
2022-08-31T21:14:46.097Z,6.70
2022-08-31T21:17:14.295Z,6.00
2022-08-31T21:19:41.927Z,6.57
2022-08-31T21:22:12.089Z,6.30
2022-08-31T21:24:41.885Z,9.50
2022-08-31T21:27:14.686Z,8.43
2022-08-31T21:29:43.531Z,5.50
2022-08-31T21:32:10.663Z,6.97
2022-08-31T21:34:38.292Z,7.28
2022-08-31T21:37:05.700Z,5.93
2022-08-31T21:39:32.496Z,5.78
2022-08-31T21:41:59.710Z,9.73
2022-08-31T21:44:27.116Z,6.20
2022-08-31T21:46:54.009Z,7.22
2022-08-31T21:49:20.998Z,10.10
2022-08-31T21:51:49.780Z,5.00
2022-08-31T21:54:19.292Z,5.22
2022-08-31T21:56:51.525Z,5.55
2022-08-31T21:59:20.833Z,5.10
2022-08-31T22:01:48.674Z,7.82
2022-08-31T22:04:16.300Z,5.78
2022-08-31T22:06:43.200Z,7.47
2022-08-31T22:09:12.992Z,8.90
2022-08-31T22:11:45.630Z,7.18
2022-08-31T22:14:16.391Z,5.10
2022-08-31T22:16:46.589Z,6.18
2022-08-31T22:19:15.545Z,6.30
2022-08-31T22:21:44.618Z,6.95
2022-08-31T22:24:15.617Z,5.45
2022-08-31T22:26:56.092Z,7.50
2022-08-31T22:29:27.826Z,7.47
2022-08-31T22:31:57.843Z,9.27
2022-08-31T22:34:25.629Z,5.80
2022-08-31T22:36:54.194Z,6.80
2022-08-31T22:39:23.680Z,10.23
2022-08-31T22:41:51.421Z,8.90
2022-08-31T22:44:20.696Z,14.10
2022-08-31T22:46:48.247Z,5.90
2022-08-31T22:49:15.465Z,12.88
2022-08-31T22:51:47.546Z,5.45
2022-08-31T22:56:42.488Z,7.78
2022-08-31T22:59:15.784Z,7.25
2022-08-31T23:01:55.019Z,7.28
2022-08-31T23:04:25.021Z,8.05
2022-08-31T23:06:52.906Z,9.60
2022-08-31T23:09:21.910Z,5.07
2022-08-31T23:11:51.739Z,10.63
2022-08-31T23:14:21.043Z,8.18
2022-08-31T23:16:57.203Z,8.63
2022-08-31T23:19:28.454Z,5.38
2022-08-31T23:21:57.604Z,5.97
2022-08-31T23:24:31.371Z,9.70
2022-08-31T23:27:03.855Z,8.35
2022-08-31T23:29:34.568Z,5.68
2022-08-31T23:32:01.345Z,7.85
2022-08-31T23:34:27.917Z,9.43
2022-08-31T23:36:55.748Z,7.85
2022-08-31T23:39:23.852Z,6.95
2022-08-31T23:41:51.151Z,6.65
2022-08-31T23:44:21.004Z,5.75
2022-08-31T23:46:48.315Z,10.00
2022-08-31T23:49:18.008Z,9.60
2022-08-31T23:51:45.254Z,11.30
2022-08-31T23:54:12.621Z,12.82
2022-08-31T23:56:41.763Z,7.07
2022-08-31T23:59:11.882Z,11.32
